Time;durP1;ratioP1;P1;durP2;ratioP2;P2;SDS_P1;SDS_P2;PMS_P1;PMS_P2;Temp;Humidity;BMP_temperature;BMP_pressure;BME280_temperature;BME280_humidity;BME280_pressure;Samples;Min_cycle;Max_cycle;Signal;HPM_P1;HPM_P2
2023/02/24 00:00:32;;;;;;;24.02;15.10;;;;;;;;;;5053585;28;20158;-57
2023/02/24 00:03:04;;;;;;;19.83;14.98;;;;;;;;;;5053643;28;20029;-57
2023/02/24 00:05:32;;;;;;;20.38;13.93;;;;;;;;;;5053627;28;20025;-54
2023/02/24 00:07:58;;;;;;;28.05;15.10;;;;;;;;;;5053144;28;20040;-58
2023/02/24 00:10:24;;;;;;;26.67;17.63;;;;;;;;;;5053363;28;20021;-57
2023/02/24 00:12:52;;;;;;;25.70;17.05;;;;;;;;;;5052778;28;20079;-57
2023/02/24 00:15:19;;;;;;;25.00;16.83;;;;;;;;;;5053541;28;20121;-58
2023/02/24 00:17:45;;;;;;;24.77;15.05;;;;;;;;;;5057075;28;20036;-57
2023/02/24 00:20:12;;;;;;;20.58;13.55;;;;;;;;;;5057019;28;20035;-58
2023/02/24 00:22:39;;;;;;;24.42;15.23;;;;;;;;;;5056177;28;20542;-57
2023/02/24 00:25:05;;;;;;;21.05;15.35;;;;;;;;;;5057172;28;20029;-57
2023/02/24 00:27:31;;;;;;;23.95;14.52;;;;;;;;;;5056468;28;20025;-56
2023/02/24 00:29:57;;;;;;;23.52;15.02;;;;;;;;;;5056431;28;20028;-57
2023/02/24 00:32:23;;;;;;;22.45;14.43;;;;;;;;;;5056107;28;20482;-57
2023/02/24 00:34:49;;;;;;;30.05;15.88;;;;;;;;;;5056627;28;20052;-57
2023/02/24 00:37:15;;;;;;;24.65;16.85;;;;;;;;;;5056013;28;20402;-57
2023/02/24 00:39:43;;;;;;;25.25;16.20;;;;;;;;;;5055903;28;20041;-58
2023/02/24 00:42:10;;;;;;;24.00;13.63;;;;;;;;;;5056931;28;20057;-57
2023/02/24 00:44:37;;;;;;;21.40;14.73;;;;;;;;;;5056415;28;20412;-57
2023/02/24 00:47:05;;;;;;;25.67;16.70;;;;;;;;;;5056085;28;20476;-55
2023/02/24 00:49:31;;;;;;;28.48;15.32;;;;;;;;;;5056008;28;20067;-57
2023/02/24 00:51:57;;;;;;;21.83;14.38;;;;;;;;;;5055736;28;20347;-58
2023/02/24 00:54:27;;;;;;;23.15;13.63;;;;;;;;;;5056281;28;20100;-58
2023/02/24 00:56:53;;;;;;;19.00;13.82;;;;;;;;;;5056473;28;20370;-57
2023/02/24 00:59:19;;;;;;;22.15;15.18;;;;;;;;;;5055895;28;20108;-56
2023/02/24 01:01:48;;;;;;;23.70;15.65;;;;;;;;;;5055769;28;20025;-57
2023/02/24 01:04:14;;;;;;;22.67;15.30;;;;;;;;;;5056286;28;20029;-55
2023/02/24 01:06:42;;;;;;;18.55;13.88;;;;;;;;;;5055735;28;20028;-57
2023/02/24 01:09:11;;;;;;;19.92;13.18;;;;;;;;;;5055581;28;20040;-55
2023/02/24 01:14:23;;;;;;;23.25;14.25;;;;;;;;;;5055643;28;20548;-55
2023/02/24 01:16:49;;;;;;;20.52;13.10;;;;;;;;;;5055555;28;20108;-58
2023/02/24 01:19:31;;;;;;;20.85;15.60;;;;;;;;;;5055660;28;20068;-55
2023/02/24 01:21:57;;;;;;;20.00;15.02;;;;;;;;;;5055650;28;20537;-57
2023/02/24 01:24:24;;;;;;;19.45;12.70;;;;;;;;;;5055348;28;20025;-56
2023/02/24 01:26:50;;;;;;;20.80;14.20;;;;;;;;;;5054937;28;20021;-58
2023/02/24 01:29:16;;;;;;;19.20;13.48;;;;;;;;;;5054917;28;20028;-58
2023/02/24 01:31:42;;;;;;;20.90;14.38;;;;;;;;;;5056030;28;20055;-57
2023/02/24 01:34:09;;;;;;;23.40;13.73;;;;;;;;;;5055226;28;20463;-55
2023/02/24 01:36:36;;;;;;;23.85;15.18;;;;;;;;;;5055274;28;20029;-57
2023/02/24 01:39:03;;;;;;;21.25;13.57;;;;;;;;;;5055457;28;20477;-57
2023/02/24 01:41:30;;;;;;;18.83;14.50;;;;;;;;;;5054978;28;20382;-55
2023/02/24 01:43:57;;;;;;;23.58;14.50;;;;;;;;;;5055012;28;20020;-56
2023/02/24 01:46:23;;;;;;;18.88;13.57;;;;;;;;;;5055542;28;20033;-55
2023/02/24 01:48:51;;;;;;;20.27;14.88;;;;;;;;;;5055161;28;20091;-56
2023/02/24 01:51:17;;;;;;;28.67;16.83;;;;;;;;;;5054864;28;20029;-57
2023/02/24 01:53:43;;;;;;;19.77;15.75;;;;;;;;;;5055101;28;20090;-53
2023/02/24 01:56:12;;;;;;;24.05;16.05;;;;;;;;;;5054863;28;20033;-53
2023/02/24 01:58:39;;;;;;;32.63;20.55;;;;;;;;;;5055129;28;20043;-56
2023/02/24 02:01:08;;;;;;;24.70;17.40;;;;;;;;;;5054724;28;20021;-56
2023/02/24 02:03:34;;;;;;;21.58;17.10;;;;;;;;;;5054634;28;20053;-56
2023/02/24 02:06:02;;;;;;;22.70;17.25;;;;;;;;;;5054975;28;20021;-57
2023/02/24 02:08:28;;;;;;;21.80;17.52;;;;;;;;;;5054537;28;20082;-56
2023/02/24 02:10:57;;;;;;;21.98;16.45;;;;;;;;;;5054848;28;20154;-56
2023/02/24 02:13:24;;;;;;;20.55;17.00;;;;;;;;;;5055143;28;20056;-55
2023/02/24 02:15:55;;;;;;;26.92;17.15;;;;;;;;;;5054339;28;20504;-57
2023/02/24 02:18:37;;;;;;;25.67;16.33;;;;;;;;;;5054850;28;20126;-57
2023/02/24 02:21:22;;;;;;;22.15;15.55;;;;;;;;;;5054865;28;20375;-54
2023/02/24 02:24:00;;;;;;;18.88;16.00;;;;;;;;;;5054192;28;20028;-55
2023/02/24 02:26:46;;;;;;;20.98;15.55;;;;;;;;;;5054882;28;20021;-56
2023/02/24 02:29:24;;;;;;;22.65;16.40;;;;;;;;;;5054164;28;20029;-57
2023/02/24 02:32:04;;;;;;;23.08;15.98;;;;;;;;;;5054436;28;20029;-57
2023/02/24 02:34:30;;;;;;;20.98;15.48;;;;;;;;;;5053828;28;20561;-53
2023/02/24 02:37:02;;;;;;;21.27;15.85;;;;;;;;;;5054579;28;20029;-56
2023/02/24 02:39:48;;;;;;;23.85;17.73;;;;;;;;;;5054174;28;20036;-53
2023/02/24 02:42:23;;;;;;;20.30;16.00;;;;;;;;;;5054111;28;20166;-57
2023/02/24 02:44:54;;;;;;;19.30;15.48;;;;;;;;;;5054308;28;20040;-57
2023/02/24 02:47:29;;;;;;;22.83;15.00;;;;;;;;;;5053976;28;20036;-56
2023/02/24 02:49:57;;;;;;;22.67;15.93;;;;;;;;;;5054524;28;20025;-57
2023/02/24 02:52:33;;;;;;;24.10;16.88;;;;;;;;;;5054404;28;20029;-56
2023/02/24 02:55:03;;;;;;;23.40;16.63;;;;;;;;;;5054704;28;20190;-56
2023/02/24 02:57:30;;;;;;;19.33;17.05;;;;;;;;;;5054509;28;20036;-57
2023/02/24 03:00:09;;;;;;;23.55;16.15;;;;;;;;;;5054048;28;20033;-57
2023/02/24 03:02:38;;;;;;;21.02;15.05;;;;;;;;;;5054562;28;20025;-57
2023/02/24 03:05:09;;;;;;;24.65;15.32;;;;;;;;;;5054023;28;20350;-54
2023/02/24 03:07:39;;;;;;;22.42;15.52;;;;;;;;;;5053989;28;20025;-57
2023/02/24 03:10:16;;;;;;;22.92;16.08;;;;;;;;;;5054244;28;20585;-57
2023/02/24 03:12:45;;;;;;;21.05;16.15;;;;;;;;;;5053414;28;20060;-57
2023/02/24 03:15:12;;;;;;;20.02;14.82;;;;;;;;;;5054170;28;20031;-57
2023/02/24 03:17:40;;;;;;;31.77;16.30;;;;;;;;;;5053444;28;20028;-57
2023/02/24 03:20:14;;;;;;;25.67;15.32;;;;;;;;;;5053529;28;20104;-57
2023/02/24 03:22:43;;;;;;;23.88;16.23;;;;;;;;;;5053791;28;20040;-57
2023/02/24 03:25:09;;;;;;;23.65;15.48;;;;;;;;;;5053828;28;20029;-57
2023/02/24 03:27:40;;;;;;;20.42;15.57;;;;;;;;;;5053422;28;20029;-58
2023/02/24 03:30:14;;;;;;;25.40;16.05;;;;;;;;;;5053874;28;20021;-57
2023/02/24 03:32:49;;;;;;;23.08;15.45;;;;;;;;;;5053464;28;20031;-57
2023/02/24 03:35:37;;;;;;;19.25;16.25;;;;;;;;;;5054023;28;20024;-58
2023/02/24 03:38:05;;;;;;;26.55;16.67;;;;;;;;;;5053680;28;20063;-58
2023/02/24 03:40:34;;;;;;;31.25;17.65;;;;;;;;;;5053345;28;20124;-57
2023/02/24 03:43:08;;;;;;;24.60;17.55;;;;;;;;;;5053606;28;20343;-57
2023/02/24 03:45:36;;;;;;;23.83;16.50;;;;;;;;;;5054149;28;20465;-57
2023/02/24 03:48:03;;;;;;;23.95;16.77;;;;;;;;;;5053235;28;20425;-57
2023/02/24 03:50:31;;;;;;;25.15;16.42;;;;;;;;;;5053788;28;20057;-57
2023/02/24 03:53:05;;;;;;;25.45;17.38;;;;;;;;;;5057137;28;20506;-57
2023/02/24 03:55:41;;;;;;;27.45;19.15;;;;;;;;;;5057697;28;20100;-57
2023/02/24 03:58:26;;;;;;;28.25;18.48;;;;;;;;;;5057204;28;20466;-57
2023/02/24 04:01:08;;;;;;;25.35;16.75;;;;;;;;;;5056750;28;20497;-57
2023/02/24 04:03:51;;;;;;;24.58;17.30;;;;;;;;;;5057040;28;20025;-57
2023/02/24 04:06:25;;;;;;;25.60;17.27;;;;;;;;;;5057258;28;20028;-57
2023/02/24 04:09:00;;;;;;;18.88;15.18;;;;;;;;;;5056808;28;20025;-58
2023/02/24 04:11:29;;;;;;;31.92;19.05;;;;;;;;;;5057309;28;20344;-58
2023/02/24 04:14:01;;;;;;;25.77;17.27;;;;;;;;;;5057289;28;20045;-57
2023/02/24 04:16:38;;;;;;;26.27;18.48;;;;;;;;;;5056759;28;20419;-57
2023/02/24 04:19:08;;;;;;;21.83;16.63;;;;;;;;;;5057217;28;20025;-57
2023/02/24 04:21:35;;;;;;;29.40;20.33;;;;;;;;;;5056523;28;20025;-57
2023/02/24 04:24:10;;;;;;;27.58;20.90;;;;;;;;;;5056545;28;20028;-58
2023/02/24 04:26:39;;;;;;;29.63;17.73;;;;;;;;;;5057093;28;20411;-57
2023/02/24 04:29:05;;;;;;;28.38;20.35;;;;;;;;;;5056349;28;20039;-57
2023/02/24 04:31:33;;;;;;;24.70;16.30;;;;;;;;;;5056451;28;20402;-58
2023/02/24 04:33:59;;;;;;;27.50;18.10;;;;;;;;;;5056684;28;20036;-57
2023/02/24 04:36:25;;;;;;;29.27;18.85;;;;;;;;;;5057246;28;20059;-57
2023/02/24 04:38:53;;;;;;;31.00;20.42;;;;;;;;;;5056781;28;20065;-57
2023/02/24 04:41:21;;;;;;;31.13;19.63;;;;;;;;;;5056260;28;20029;-57
2023/02/24 04:43:50;;;;;;;24.65;17.90;;;;;;;;;;5056235;28;20029;-58
2023/02/24 04:46:17;;;;;;;23.15;17.23;;;;;;;;;;5056575;28;20029;-57
2023/02/24 04:48:44;;;;;;;29.45;19.02;;;;;;;;;;5056132;28;20032;-57
2023/02/24 04:51:10;;;;;;;32.03;18.40;;;;;;;;;;5056129;28;20021;-58
2023/02/24 04:53:36;;;;;;;35.63;21.67;;;;;;;;;;5056066;28;20370;-57
2023/02/24 04:56:07;;;;;;;30.33;18.65;;;;;;;;;;5056022;28;20459;-57
2023/02/24 04:58:33;;;;;;;;;;;;;;;;;;5056323;28;20056;-57
2023/02/24 05:00:59;;;;;;;26.75;19.25;;;;;;;;;;5056247;28;19912;-57
2023/02/24 05:03:27;;;;;;;29.90;19.08;;;;;;;;;;5056241;28;20043;-58
2023/02/24 05:05:58;;;;;;;34.63;21.75;;;;;;;;;;5056602;28;20029;-57
2023/02/24 05:08:26;;;;;;;31.08;20.02;;;;;;;;;;5056045;28;20033;-58
2023/02/24 05:10:52;;;;;;;39.47;21.88;;;;;;;;;;5055644;28;20033;-57
2023/02/24 05:13:20;;;;;;;37.15;21.88;;;;;;;;;;5055735;28;20040;-56
2023/02/24 05:15:47;;;;;;;28.48;19.95;;;;;;;;;;5055549;28;20036;-57
2023/02/24 05:18:15;;;;;;;29.80;18.20;;;;;;;;;;5055402;28;20061;-57
2023/02/24 05:23:33;;;;;;;33.38;20.38;;;;;;;;;;5055783;28;20510;-56
2023/02/24 05:25:59;;;;;;;34.65;23.95;;;;;;;;;;5055739;28;20382;-57
2023/02/24 05:28:25;;;;;;;31.80;19.60;;;;;;;;;;5055109;28;20463;-57
2023/02/24 05:30:53;;;;;;;29.05;21.20;;;;;;;;;;5055903;28;20410;-57
2023/02/24 05:33:22;;;;;;;42.60;21.80;;;;;;;;;;5055220;28;20033;-57
2023/02/24 05:35:49;;;;;;;36.03;22.15;;;;;;;;;;5055357;28;20035;-57
2023/02/24 05:38:18;;;;;;;34.33;21.92;;;;;;;;;;5055098;28;20043;-57
2023/02/24 05:40:46;;;;;;;37.35;21.33;;;;;;;;;;5055152;28;20029;-56
2023/02/24 05:43:16;;;;;;;37.55;22.13;;;;;;;;;;5055577;28;20032;-57
2023/02/24 05:45:42;;;;;;;;;;;;;;;;;;5056205;28;20025;-57
2023/02/24 05:48:09;;;;;;;35.20;19.80;;;;;;;;;;5055613;28;19953;-57
2023/02/24 05:50:35;;;;;;;37.97;22.52;;;;;;;;;;5055597;28;20451;-56
2023/02/24 05:53:02;;;;;;;33.20;19.90;;;;;;;;;;5055340;28;20351;-57
2023/02/24 05:55:28;;;;;;;35.78;20.23;;;;;;;;;;5055738;28;20372;-56
2023/02/24 05:57:55;;;;;;;31.92;21.42;;;;;;;;;;5054824;28;20035;-57
2023/02/24 06:00:24;;;;;;;30.00;20.08;;;;;;;;;;5054655;28;20037;-57
2023/02/24 06:02:51;;;;;;;39.45;21.27;;;;;;;;;;5054702;28;20079;-57
2023/02/24 06:05:24;;;;;;;40.40;21.55;;;;;;;;;;5055519;28;20033;-56
2023/02/24 06:08:03;;;;;;;40.38;23.67;;;;;;;;;;5054990;28;20032;-56
2023/02/24 06:10:30;;;;;;;37.47;22.40;;;;;;;;;;5055182;28;20044;-56
2023/02/24 06:12:56;;;;;;;44.20;21.23;;;;;;;;;;5053912;28;20024;-57
2023/02/24 06:15:22;;;;;;;40.10;23.83;;;;;;;;;;5054092;28;20032;-57
2023/02/24 06:17:48;;;;;;;40.60;23.65;;;;;;;;;;5054624;28;20151;-57
2023/02/24 06:20:15;;;;;;;40.35;23.02;;;;;;;;;;5054576;28;20029;-57
2023/02/24 06:22:41;;;;;;;39.72;21.25;;;;;;;;;;5055120;28;20051;-58
2023/02/24 06:25:08;;;;;;;49.63;22.52;;;;;;;;;;5054347;28;20029;-56
2023/02/24 06:27:35;;;;;;;41.20;22.48;;;;;;;;;;5054171;28;20116;-56
2023/02/24 06:30:02;;;;;;;42.67;19.35;;;;;;;;;;5054707;28;20395;-56
2023/02/24 06:32:28;;;;;;;35.88;20.83;;;;;;;;;;5054695;28;20025;-56
2023/02/24 06:34:56;;;;;;;32.67;19.67;;;;;;;;;;5054536;28;20031;-57
2023/02/24 06:37:22;;;;;;;45.10;20.60;;;;;;;;;;5054059;28;20044;-56
2023/02/24 06:39:48;;;;;;;42.42;20.73;;;;;;;;;;5054039;28;20060;-57
2023/02/24 06:42:14;;;;;;;42.72;19.30;;;;;;;;;;5052618;28;20064;-56
2023/02/24 06:44:40;;;;;;;35.63;21.13;;;;;;;;;;5054269;28;20020;-57
2023/02/24 06:47:08;;;;;;;39.17;20.50;;;;;;;;;;5053877;28;20371;-57
2023/02/24 06:49:34;;;;;;;49.95;23.48;;;;;;;;;;5053615;28;20033;-57
2023/02/24 06:52:00;;;;;;;38.40;20.80;;;;;;;;;;5054477;28;20025;-57
2023/02/24 06:54:31;;;;;;;37.13;20.05;;;;;;;;;;5053815;28;20025;-56
2023/02/24 06:57:02;;;;;;;40.03;20.88;;;;;;;;;;5054072;28;20028;-54
2023/02/24 06:59:28;;;;;;;36.55;19.98;;;;;;;;;;5053703;28;20467;-57
2023/02/24 07:01:54;;;;;;;36.92;19.42;;;;;;;;;;5053851;28;20032;-57
2023/02/24 07:04:23;;;;;;;35.78;20.35;;;;;;;;;;5053780;28;20071;-57
2023/02/24 07:06:51;;;;;;;36.00;21.60;;;;;;;;;;5053792;28;20029;-57
2023/02/24 07:09:18;;;;;;;41.90;22.67;;;;;;;;;;5053649;28;20029;-57
2023/02/24 07:11:47;;;;;;;34.88;20.05;;;;;;;;;;5053559;28;20064;-57
2023/02/24 07:14:13;;;;;;;36.58;21.10;;;;;;;;;;5053715;28;20108;-57
2023/02/24 07:16:43;;;;;;;51.67;22.83;;;;;;;;;;5053571;28;20067;-56
2023/02/24 07:19:12;;;;;;;45.55;23.75;;;;;;;;;;5053524;28;20065;-59
2023/02/24 07:21:39;;;;;;;38.20;19.45;;;;;;;;;;5053030;28;20118;-59
2023/02/24 07:24:07;;;;;;;36.50;20.67;;;;;;;;;;5053533;28;20018;-56
2023/02/24 07:26:33;;;;;;;36.80;18.65;;;;;;;;;;5056328;28;20025;-56
2023/02/24 07:29:03;;;;;;;41.20;19.75;;;;;;;;;;5057430;28;20039;-55
2023/02/24 07:31:34;;;;;;;43.00;21.38;;;;;;;;;;5058100;28;20379;-56
2023/02/24 07:34:00;;;;;;;48.17;21.08;;;;;;;;;;5057746;28;20412;-55
2023/02/24 07:36:28;;;;;;;53.45;23.50;;;;;;;;;;5058057;28;20028;-56
2023/02/24 07:38:56;;;;;;;50.08;21.45;;;;;;;;;;5057356;28;20032;-55
2023/02/24 07:41:25;;;;;;;44.13;22.70;;;;;;;;;;5057270;28;20029;-55
2023/02/24 07:43:51;;;;;;;43.10;21.60;;;;;;;;;;5057237;28;20017;-56
2023/02/24 07:46:19;;;;;;;45.58;24.77;;;;;;;;;;5057514;28;20425;-54
2023/02/24 07:48:45;;;;;;;43.90;22.25;;;;;;;;;;5057228;28;20137;-55
2023/02/24 07:51:16;;;;;;;42.03;21.25;;;;;;;;;;5057117;28;20021;-56
2023/02/24 07:53:42;;;;;;;35.40;22.40;;;;;;;;;;5057552;28;20028;-55
2023/02/24 07:56:12;;;;;;;52.30;24.13;;;;;;;;;;5058004;28;20024;-56
2023/02/24 07:58:43;;;;;;;47.63;22.83;;;;;;;;;;5057038;28;20474;-55
2023/02/24 08:01:16;;;;;;;48.50;24.23;;;;;;;;;;5057483;28;20044;-54
2023/02/24 08:03:42;;;;;;;38.67;21.88;;;;;;;;;;5057524;28;20363;-55
2023/02/24 08:06:14;;;;;;;35.65;22.30;;;;;;;;;;5057297;28;20108;-55
2023/02/24 08:08:58;;;;;;;37.78;23.23;;;;;;;;;;5056689;28;20528;-57
2023/02/24 08:11:34;;;;;;;30.67;22.30;;;;;;;;;;5057515;28;20024;-57
2023/02/24 08:14:12;;;;;;;42.72;22.83;;;;;;;;;;5056783;28;20049;-58
2023/02/24 08:16:39;;;;;;;36.97;22.13;;;;;;;;;;5057537;28;20031;-58
2023/02/24 08:19:06;;;;;;;31.27;18.85;;;;;;;;;;5057259;28;20040;-57
2023/02/24 08:21:40;;;;;;;38.90;22.27;;;;;;;;;;5056528;28;20032;-57
2023/02/24 08:24:08;;;;;;;30.75;19.08;;;;;;;;;;5056549;28;20033;-57
2023/02/24 08:26:43;;;;;;;35.17;19.52;;;;;;;;;;5057423;28;20024;-57
2023/02/24 08:29:09;;;;;;;34.70;18.55;;;;;;;;;;5056870;28;20037;-55
2023/02/24 08:31:35;;;;;;;48.35;20.73;;;;;;;;;;5056669;28;20025;-56
2023/02/24 08:34:01;;;;;;;32.28;19.73;;;;;;;;;;5056026;28;20497;-57
2023/02/24 08:36:27;;;;;;;37.38;17.13;;;;;;;;;;5055533;28;20435;-58
2023/02/24 08:38:53;;;;;;;36.20;18.60;;;;;;;;;;5056315;28;20036;-56
2023/02/24 08:41:27;;;;;;;35.53;19.73;;;;;;;;;;5056282;28;20033;-55
2023/02/24 08:43:54;;;;;;;37.60;21.35;;;;;;;;;;5057064;28;20025;-57
2023/02/24 08:46:24;;;;;;;36.65;21.10;;;;;;;;;;5056392;28;20115;-58
2023/02/24 08:48:55;;;;;;;35.20;18.67;;;;;;;;;;5056773;28;20417;-57
2023/02/24 08:51:27;;;;;;;37.58;17.90;;;;;;;;;;5056182;28;20029;-57
2023/02/24 08:53:54;;;;;;;33.30;17.63;;;;;;;;;;5056085;28;20025;-58
2023/02/24 08:56:24;;;;;;;39.80;19.83;;;;;;;;;;5056571;28;20033;-56
2023/02/24 08:58:55;;;;;;;36.75;20.13;;;;;;;;;;5056469;28;20154;-57
2023/02/24 09:01:22;;;;;;;40.13;21.38;;;;;;;;;;5055785;28;20037;-58
2023/02/24 09:03:56;;;;;;;40.70;21.02;;;;;;;;;;5056451;28;20033;-54
2023/02/24 09:06:24;;;;;;;36.53;19.83;;;;;;;;;;5056328;28;20112;-57
2023/02/24 09:09:16;;;;;;;33.60;18.80;;;;;;;;;;5055621;28;20037;-57
2023/02/24 09:11:42;;;;;;;30.08;18.92;;;;;;;;;;5055597;28;20107;-56
2023/02/24 09:14:15;;;;;;;30.30;18.58;;;;;;;;;;5055772;28;20130;-57
2023/02/24 09:17:00;;;;;;;53.15;22.10;;;;;;;;;;5056310;28;20025;-58
2023/02/24 09:22:28;;;;;;;24.55;15.73;;;;;;;;;;5055300;28;20114;-58
2023/02/24 09:25:16;;;;;;;20.73;12.77;;;;;;;;;;5055568;28;20021;-55
2023/02/24 09:27:43;;;;;;;23.63;12.25;;;;;;;;;;5055353;28;20025;-58
2023/02/24 09:30:34;;;;;;;20.65;12.88;;;;;;;;;;5055424;28;20043;-56
2023/02/24 09:32:59;;;;;;;15.68;11.85;;;;;;;;;;5056061;28;20405;-56
2023/02/24 09:35:29;;;;;;;21.65;11.52;;;;;;;;;;5055662;28;20116;-55
2023/02/24 09:37:56;;;;;;;17.83;12.82;;;;;;;;;;5055255;28;20032;-52
2023/02/24 09:40:38;;;;;;;19.20;11.38;;;;;;;;;;5055098;28;20044;-53
2023/02/24 09:43:09;;;;;;;20.45;11.63;;;;;;;;;;5054926;28;20025;-51
2023/02/24 09:45:38;;;;;;;14.95;9.55;;;;;;;;;;5055123;28;20032;-54
2023/02/24 09:48:14;;;;;;;17.52;9.25;;;;;;;;;;5054129;28;20120;-51
2023/02/24 09:53:37;;;;;;;20.45;8.30;;;;;;;;;;5055332;28;20032;-55
2023/02/24 09:56:08;;;;;;;15.02;8.68;;;;;;;;;;5055694;28;20028;-52
2023/02/24 09:58:49;;;;;;;10.38;7.18;;;;;;;;;;5055308;28;20455;-54
2023/02/24 10:01:34;;;;;;;9.57;7.47;;;;;;;;;;5055041;28;20028;-53
2023/02/24 10:04:27;;;;;;;12.18;9.32;;;;;;;;;;5054645;28;20025;-54
2023/02/24 10:07:01;;;;;;;13.90;9.27;;;;;;;;;;5046084;28;20041;-54
2023/02/24 10:09:33;;;;;;;15.48;9.05;;;;;;;;;;5054832;28;20024;-54
2023/02/24 10:12:04;;;;;;;13.52;8.60;;;;;;;;;;5055063;28;20035;-56
2023/02/24 10:14:39;;;;;;;24.65;10.82;;;;;;;;;;5054764;28;20052;-55
2023/02/24 10:17:22;;;;;;;13.57;8.63;;;;;;;;;;5053928;28;20029;-55
2023/02/24 10:19:58;;;;;;;12.75;8.07;;;;;;;;;;5054598;28;20035;-57
2023/02/24 10:22:33;;;;;;;16.52;9.30;;;;;;;;;;5055015;28;20121;-57
2023/02/24 10:25:18;;;;;;;13.63;8.40;;;;;;;;;;5054856;28;20029;-55
2023/02/24 10:27:56;;;;;;;10.90;7.32;;;;;;;;;;5054643;28;20031;-57
2023/02/24 10:30:40;;;;;;;12.38;8.00;;;;;;;;;;5055083;28;20037;-59
2023/02/24 10:33:17;;;;;;;8.55;7.03;;;;;;;;;;5055020;28;20443;-58
2023/02/24 10:35:43;;;;;;;12.02;5.65;;;;;;;;;;5054551;28;20025;-58
2023/02/24 10:38:09;;;;;;;18.45;8.00;;;;;;;;;;5054034;28;20423;-59
2023/02/24 10:41:05;;;;;;;8.90;6.60;;;;;;;;;;5054461;28;20055;-58
2023/02/24 10:43:32;;;;;;;13.35;6.90;;;;;;;;;;5050086;28;20353;-59
2023/02/24 10:46:15;;;;;;;13.82;7.10;;;;;;;;;;5054072;28;20044;-58
2023/02/24 10:48:49;;;;;;;12.45;6.47;;;;;;;;;;5053967;28;20028;-58
2023/02/24 10:51:21;;;;;;;8.00;5.80;;;;;;;;;;5054516;28;20056;-57
2023/02/24 10:54:08;;;;;;;13.02;8.98;;;;;;;;;;5053819;28;20067;-59
2023/02/24 10:56:54;;;;;;;20.50;11.43;;;;;;;;;;5053714;28;20430;-59
2023/02/24 11:02:00;;;;;;;16.67;10.48;;;;;;;;;;5053764;28;20407;-58
2023/02/24 11:07:23;;;;;;;11.85;9.00;;;;;;;;;;5053451;28;20025;-59
2023/02/24 11:10:09;;;;;;;14.85;8.90;;;;;;;;;;5054526;28;20029;-59
2023/02/24 11:18:18;;;;;;;12.57;7.80;;;;;;;;;;5053636;28;20102;-57
2023/02/24 11:20:46;;;;;;;13.18;8.35;;;;;;;;;;5053518;28;20056;-59
2023/02/24 11:23:21;;;;;;;14.77;8.25;;;;;;;;;;5053607;28;20080;-58
2023/02/24 11:25:49;;;;;;;15.38;9.25;;;;;;;;;;5054181;28;20053;-59
2023/02/24 11:28:26;;;;;;;12.75;8.02;;;;;;;;;;5053422;28;20091;-58
2023/02/24 11:31:01;;;;;;;13.68;8.73;;;;;;;;;;5054084;28;20032;-57
2023/02/24 11:33:27;;;;;;;15.65;9.40;;;;;;;;;;5053617;28;20383;-58
2023/02/24 11:36:04;;;;;;;14.93;8.55;;;;;;;;;;5053902;28;20025;-58
2023/02/24 11:38:39;;;;;;;20.92;12.18;;;;;;;;;;5053337;28;20025;-58
2023/02/24 11:41:12;;;;;;;22.85;10.75;;;;;;;;;;5053274;28;20033;-58
2023/02/24 11:43:40;;;;;;;25.77;11.10;;;;;;;;;;5053757;28;20029;-59
2023/02/24 11:46:11;;;;;;;16.60;10.65;;;;;;;;;;5053571;28;20026;-59
2023/02/24 11:48:43;;;;;;;17.00;11.10;;;;;;;;;;5053511;28;20029;-57
2023/02/24 11:51:30;;;;;;;21.35;12.23;;;;;;;;;;5053235;28;20147;-58
2023/02/24 11:54:23;;;;;;;18.20;12.18;;;;;;;;;;5053775;28;20025;-59
2023/02/24 11:56:54;;;;;;;21.67;11.38;;;;;;;;;;5052406;28;20489;-58
2023/02/24 11:59:28;;;;;;;20.10;11.13;;;;;;;;;;5053743;28;20494;-58
2023/02/24 12:02:13;;;;;;;20.30;11.50;;;;;;;;;;5053203;28;20028;-58
2023/02/24 12:04:51;;;;;;;20.52;9.68;;;;;;;;;;5053538;28;20029;-59
2023/02/24 12:07:20;;;;;;;19.75;10.18;;;;;;;;;;5053197;28;20439;-59
2023/02/24 12:09:55;;;;;;;19.02;10.45;;;;;;;;;;5053418;28;20033;-59
2023/02/24 12:12:30;;;;;;;16.48;8.60;;;;;;;;;;5054937;28;20463;-58
2023/02/24 12:15:02;;;;;;;14.55;8.80;;;;;;;;;;5055277;28;20448;-59
2023/02/24 12:17:28;;;;;;;20.95;8.48;;;;;;;;;;5056750;28;20064;-59
2023/02/24 12:20:00;;;;;;;14.93;9.18;;;;;;;;;;5056491;28;20067;-58
2023/02/24 12:22:30;;;;;;;15.60;8.18;;;;;;;;;;5057176;28;20056;-59
2023/02/24 12:24:56;;;;;;;12.65;8.00;;;;;;;;;;5057046;28;20413;-59
2023/02/24 12:27:23;;;;;;;16.83;8.20;;;;;;;;;;5056299;28;20570;-58
2023/02/24 12:29:53;;;;;;;15.85;8.48;;;;;;;;;;5056475;28;20489;-59
2023/02/24 12:32:29;;;;;;;20.48;8.15;;;;;;;;;;5057086;28;20447;-58
2023/02/24 12:34:57;;;;;;;11.77;8.10;;;;;;;;;;5056812;28;20490;-59
2023/02/24 12:37:42;;;;;;;14.50;7.35;;;;;;;;;;5056346;28;20021;-59
2023/02/24 12:40:11;;;;;;;10.20;6.60;;;;;;;;;;5056179;28;20033;-59
2023/02/24 12:42:37;;;;;;;11.73;8.65;;;;;;;;;;5056244;28;20025;-59
2023/02/24 12:45:21;;;;;;;11.25;5.93;;;;;;;;;;5056693;28;20108;-58
2023/02/24 12:48:04;;;;;;;10.98;7.03;;;;;;;;;;5055898;28;20044;-59
2023/02/24 12:50:30;;;;;;;16.48;7.13;;;;;;;;;;5056760;28;20040;-58
2023/02/24 12:53:18;;;;;;;8.23;6.40;;;;;;;;;;5056076;28;20035;-59
2023/02/24 12:55:56;;;;;;;11.02;6.57;;;;;;;;;;5056119;28;20043;-59
2023/02/24 12:58:22;;;;;;;14.73;5.88;;;;;;;;;;5055552;28;20527;-58
2023/02/24 13:01:07;;;;;;;10.88;7.53;;;;;;;;;;5055694;28;20068;-59
2023/02/24 13:03:39;;;;;;;14.10;7.22;;;;;;;;;;5055642;28;20112;-59
2023/02/24 13:06:24;;;;;;;13.68;7.05;;;;;;;;;;5056173;28;20028;-58
2023/02/24 13:08:53;;;;;;;13.73;7.55;;;;;;;;;;5055736;28;20032;-59
2023/02/24 13:11:55;;;;;;;11.30;6.18;;;;;;;;;;5055619;28;20040;-58
2023/02/24 13:14:21;;;;;;;17.35;7.57;;;;;;;;;;5033187;28;20046;-59
2023/02/24 13:16:47;;;;;;;11.43;7.18;;;;;;;;;;5050771;28;20041;-57
2023/02/24 13:19:25;;;;;;;14.60;7.45;;;;;;;;;;5056008;28;20029;-59
2023/02/24 13:21:56;;;;;;;12.93;7.55;;;;;;;;;;5055473;28;20033;-58
2023/02/24 13:24:23;;;;;;;12.15;5.75;;;;;;;;;;5055360;28;20033;-58
2023/02/24 13:26:49;;;;;;;16.08;6.95;;;;;;;;;;5055865;28;20028;-57
2023/02/24 13:29:15;;;;;;;14.95;6.93;;;;;;;;;;5055641;28;20025;-58
2023/02/24 13:31:41;;;;;;;11.80;6.72;;;;;;;;;;5055710;28;20103;-57
2023/02/24 13:34:25;;;;;;;14.45;6.25;;;;;;;;;;5054936;28;20049;-59
2023/02/24 13:36:51;;;;;;;10.35;5.13;;;;;;;;;;5055328;28;20466;-57
2023/02/24 13:39:31;;;;;;;19.58;5.93;;;;;;;;;;5054966;28;20021;-59
2023/02/24 13:42:02;;;;;;;13.43;5.65;;;;;;;;;;5056031;28;20025;-59
2023/02/24 13:44:28;;;;;;;11.88;5.75;;;;;;;;;;5055139;28;20064;-59
2023/02/24 13:47:03;;;;;;;9.88;6.68;;;;;;;;;;5055776;28;20059;-59
2023/02/24 13:49:29;;;;;;;9.23;5.93;;;;;;;;;;5055004;28;20033;-59
2023/02/24 13:51:58;;;;;;;11.30;6.00;;;;;;;;;;5054998;28;20048;-59
2023/02/24 13:54:39;;;;;;;8.18;5.45;;;;;;;;;;5055356;28;20031;-58
2023/02/24 13:57:18;;;;;;;6.60;4.68;;;;;;;;;;5055167;28;20059;-59
2023/02/24 13:59:44;;;;;;;15.48;5.80;;;;;;;;;;5055065;28;20033;-59
2023/02/24 14:02:10;;;;;;;10.10;4.63;;;;;;;;;;5054763;28;20078;-59
2023/02/24 14:04:38;;;;;;;9.02;6.22;;;;;;;;;;5055052;28;20025;-58
2023/02/24 14:07:19;;;;;;;11.93;6.97;;;;;;;;;;5054511;28;20025;-59
2023/02/24 14:09:45;;;;;;;;;;;;;;;;;;5055332;28;20411;-59
2023/02/24 14:12:19;;;;;;;12.95;5.15;;;;;;;;;;5054342;28;19946;-59
2023/02/24 14:14:45;;;;;;;10.52;5.20;;;;;;;;;;5055001;28;20053;-59
2023/02/24 14:17:25;;;;;;;13.82;6.13;;;;;;;;;;5055125;28;20107;-57
2023/02/24 14:19:51;;;;;;;10.68;4.80;;;;;;;;;;5054179;28;20040;-59
2023/02/24 14:22:19;;;;;;;16.90;6.53;;;;;;;;;;5054060;28;20123;-58
2023/02/24 14:24:45;;;;;;;8.20;6.00;;;;;;;;;;5054913;28;20116;-58
2023/02/24 14:27:20;;;;;;;11.70;4.90;;;;;;;;;;5054740;28;20451;-58
2023/02/24 14:29:46;;;;;;;11.65;5.00;;;;;;;;;;5054463;28;20021;-58
2023/02/24 14:32:18;;;;;;;9.88;6.22;;;;;;;;;;5054385;28;20025;-59
2023/02/24 14:34:46;;;;;;;9.77;5.18;;;;;;;;;;5053891;28;20447;-58
2023/02/24 14:37:16;;;;;;;19.02;8.30;;;;;;;;;;5054055;28;20040;-58
2023/02/24 14:39:48;;;;;;;18.10;8.60;;;;;;;;;;5053873;28;20037;-59
2023/02/24 14:42:14;;;;;;;14.50;9.65;;;;;;;;;;5054838;28;20029;-59
2023/02/24 14:44:45;;;;;;;19.58;9.27;;;;;;;;;;5053931;28;20374;-59
2023/02/24 14:47:13;;;;;;;14.95;9.20;;;;;;;;;;5053906;28;20029;-58
2023/02/24 14:49:39;;;;;;;20.17;9.68;;;;;;;;;;5053546;28;20033;-59
2023/02/24 14:52:18;;;;;;;14.35;8.68;;;;;;;;;;5054219;28;20021;-58
2023/02/24 14:54:53;;;;;;;17.40;9.18;;;;;;;;;;5053812;28;20045;-58
2023/02/24 14:57:24;;;;;;;12.52;7.70;;;;;;;;;;5054239;28;20021;-58
2023/02/24 14:59:53;;;;;;;16.00;8.48;;;;;;;;;;5053396;28;20021;-58
2023/02/24 15:02:23;;;;;;;18.80;8.52;;;;;;;;;;5053780;28;20029;-58
2023/02/24 15:04:49;;;;;;;9.98;6.68;;;;;;;;;;5054305;28;20036;-58
2023/02/24 15:07:23;;;;;;;14.38;7.10;;;;;;;;;;5054539;28;20021;-59